sensor_id;sensor_type;location;lat;lon;timestamp;pressure;altitude;pressure_sealevel;temperature;humidity
1724;BME280;7460;52.738;6.282;2022-09-28T00:00:45;98812.03;;;9.93;100.00
1724;BME280;7460;52.738;6.282;2022-09-28T00:03:19;98814.09;;;9.91;100.00
1724;BME280;7460;52.738;6.282;2022-09-28T00:05:59;98814.59;;;9.73;100.00
1724;BME280;7460;52.738;6.282;2022-09-28T00:08:33;98814.03;;;9.28;100.00
1724;BME280;7460;52.738;6.282;2022-09-28T00:11:11;98815.28;;;9.54;100.00
1724;BME280;7460;52.738;6.282;2022-09-28T00:13:48;98819.94;;;9.67;100.00
1724;BME280;7460;52.738;6.282;2022-09-28T00:16:24;98824.22;;;9.54;100.00
1724;BME280;7460;52.738;6.282;2022-09-28T00:18:58;98817.25;;;9.67;100.00
1724;BME280;7460;52.738;6.282;2022-09-28T00:21:34;98809.13;;;9.67;100.00
1724;BME280;7460;52.738;6.282;2022-09-28T00:24:11;98813.75;;;9.73;100.00
1724;BME280;7460;52.738;6.282;2022-09-28T00:26:49;98806.50;;;9.73;100.00
1724;BME280;7460;52.738;6.282;2022-09-28T00:29:25;98801.91;;;9.74;100.00
1724;BME280;7460;52.738;6.282;2022-09-28T00:32:01;98807.88;;;9.35;100.00
1724;BME280;7460;52.738;6.282;2022-09-28T00:34:36;98801.03;;;9.17;100.00
1724;BME280;7460;52.738;6.282;2022-09-28T00:37:12;98807.22;;;9.33;100.00
1724;BME280;7460;52.738;6.282;2022-09-28T00:39:47;98812.44;;;9.34;100.00
1724;BME280;7460;52.738;6.282;2022-09-28T00:42:23;98809.59;;;9.21;100.00
1724;BME280;7460;52.738;6.282;2022-09-28T00:44:57;98806.50;;;9.24;100.00
1724;BME280;7460;52.738;6.282;2022-09-28T00:47:42;98813.84;;;9.30;100.00
1724;BME280;7460;52.738;6.282;2022-09-28T00:50:23;98809.19;;;9.45;100.00
1724;BME280;7460;52.738;6.282;2022-09-28T00:53:02;98816.53;;;9.58;100.00
1724;BME280;7460;52.738;6.282;2022-09-28T00:55:40;98812.88;;;9.65;100.00
1724;BME280;7460;52.738;6.282;2022-09-28T00:58:20;98809.38;;;9.72;100.00
1724;BME280;7460;52.738;6.282;2022-09-28T01:00:56;98813.56;;;9.74;100.00
1724;BME280;7460;52.738;6.282;2022-09-28T01:03:31;98811.38;;;9.63;100.00
1724;BME280;7460;52.738;6.282;2022-09-28T01:06:06;98812.97;;;9.51;100.00
1724;BME280;7460;52.738;6.282;2022-09-28T01:08:41;98813.00;;;9.29;100.00
1724;BME280;7460;52.738;6.282;2022-09-28T01:11:15;98817.84;;;9.34;100.00
1724;BME280;7460;52.738;6.282;2022-09-28T01:13:52;98812.44;;;9.34;100.00
1724;BME280;7460;52.738;6.282;2022-09-28T01:16:37;98819.09;;;9.38;100.00
1724;BME280;7460;52.738;6.282;2022-09-28T01:19:32;98796.84;;;9.15;100.00
1724;BME280;7460;52.738;6.282;2022-09-28T01:22:22;98808.66;;;9.07;100.00
1724;BME280;7460;52.738;6.282;2022-09-28T01:25:06;98808.94;;;9.19;100.00
1724;BME280;7460;52.738;6.282;2022-09-28T01:27:48;98813.78;;;9.23;100.00
1724;BME280;7460;52.738;6.282;2022-09-28T01:30:23;98810.50;;;9.28;100.00
1724;BME280;7460;52.738;6.282;2022-09-28T01:33:03;98809.84;;;9.26;100.00
1724;BME280;7460;52.738;6.282;2022-09-28T01:35:40;98806.78;;;9.08;100.00
1724;BME280;7460;52.738;6.282;2022-09-28T01:38:18;98802.03;;;8.88;100.00
1724;BME280;7460;52.738;6.282;2022-09-28T01:40:53;98815.00;;;8.78;100.00
1724;BME280;7460;52.738;6.282;2022-09-28T01:43:30;98814.16;;;8.78;100.00
1724;BME280;7460;52.738;6.282;2022-09-28T01:46:11;98811.22;;;8.73;100.00
1724;BME280;7460;52.738;6.282;2022-09-28T01:48:48;98811.31;;;8.65;100.00
1724;BME280;7460;52.738;6.282;2022-09-28T01:51:33;98807.25;;;8.54;100.00
1724;BME280;7460;52.738;6.282;2022-09-28T01:54:12;98807.06;;;8.55;100.00
1724;BME280;7460;52.738;6.282;2022-09-28T01:56:50;98805.09;;;8.64;100.00
1724;BME280;7460;52.738;6.282;2022-09-28T01:59:28;98805.59;;;8.74;100.00
1724;BME280;7460;52.738;6.282;2022-09-28T02:02:07;98802.28;;;8.72;100.00
1724;BME280;7460;52.738;6.282;2022-09-28T02:04:44;98797.66;;;8.66;100.00
1724;BME280;7460;52.738;6.282;2022-09-28T02:07:23;98801.66;;;8.55;100.00
1724;BME280;7460;52.738;6.282;2022-09-28T02:10:01;98805.25;;;8.41;100.00
1724;BME280;7460;52.738;6.282;2022-09-28T02:12:39;98793.63;;;8.26;100.00
1724;BME280;7460;52.738;6.282;2022-09-28T02:15:19;98793.44;;;8.27;100.00
1724;BME280;7460;52.738;6.282;2022-09-28T02:17:53;98796.69;;;8.38;100.00
1724;BME280;7460;52.738;6.282;2022-09-28T02:20:28;98798.81;;;8.42;100.00
1724;BME280;7460;52.738;6.282;2022-09-28T02:23:03;98794.00;;;8.38;100.00
1724;BME280;7460;52.738;6.282;2022-09-28T02:25:39;98795.28;;;8.42;100.00
1724;BME280;7460;52.738;6.282;2022-09-28T02:28:13;98798.53;;;8.52;100.00
1724;BME280;7460;52.738;6.282;2022-09-28T02:30:47;98793.06;;;8.45;100.00
1724;BME280;7460;52.738;6.282;2022-09-28T02:33:24;98802.63;;;8.48;100.00
1724;BME280;7460;52.738;6.282;2022-09-28T02:36:00;98794.53;;;8.48;100.00
1724;BME280;7460;52.738;6.282;2022-09-28T02:38:36;98804.53;;;8.54;100.00
1724;BME280;7460;52.738;6.282;2022-09-28T02:41:24;98799.16;;;8.54;100.00
1724;BME280;7460;52.738;6.282;2022-09-28T02:44:07;98796.13;;;8.27;100.00
1724;BME280;7460;52.738;6.282;2022-09-28T02:46:54;98794.72;;;8.32;100.00
1724;BME280;7460;52.738;6.282;2022-09-28T02:49:34;98798.00;;;8.42;100.00
1724;BME280;7460;52.738;6.282;2022-09-28T02:52:31;98799.84;;;8.41;100.00
1724;BME280;7460;52.738;6.282;2022-09-28T02:55:17;98802.34;;;8.43;100.00
1724;BME280;7460;52.738;6.282;2022-09-28T02:58:08;98809.78;;;8.41;100.00
1724;BME280;7460;52.738;6.282;2022-09-28T03:00:53;98802.47;;;8.20;100.00
1724;BME280;7460;52.738;6.282;2022-09-28T03:03:37;98806.47;;;8.09;100.00
1724;BME280;7460;52.738;6.282;2022-09-28T03:06:18;98805.44;;;7.96;100.00
1724;BME280;7460;52.738;6.282;2022-09-28T03:08:57;98811.19;;;7.92;100.00
1724;BME280;7460;52.738;6.282;2022-09-28T03:11:36;98813.00;;;7.85;100.00
1724;BME280;7460;52.738;6.282;2022-09-28T03:14:12;98807.41;;;7.87;100.00
1724;BME280;7460;52.738;6.282;2022-09-28T03:16:46;98810.09;;;8.02;100.00
1724;BME280;7460;52.738;6.282;2022-09-28T03:19:22;98807.41;;;8.02;100.00
1724;BME280;7460;52.738;6.282;2022-09-28T03:21:56;98812.13;;;8.00;100.00
1724;BME280;7460;52.738;6.282;2022-09-28T03:24:30;98808.44;;;7.86;100.00
1724;BME280;7460;52.738;6.282;2022-09-28T03:27:03;98806.38;;;8.03;100.00
1724;BME280;7460;52.738;6.282;2022-09-28T03:29:36;98805.19;;;8.05;100.00
1724;BME280;7460;52.738;6.282;2022-09-28T03:32:09;98800.91;;;7.96;100.00
1724;BME280;7460;52.738;6.282;2022-09-28T03:34:44;98801.94;;;7.80;100.00
1724;BME280;7460;52.738;6.282;2022-09-28T03:37:18;98802.00;;;8.02;100.00
1724;BME280;7460;52.738;6.282;2022-09-28T03:39:50;98805.66;;;8.09;100.00
1724;BME280;7460;52.738;6.282;2022-09-28T03:42:24;98812.31;;;8.13;100.00
1724;BME280;7460;52.738;6.282;2022-09-28T03:44:57;98817.50;;;8.14;100.00
1724;BME280;7460;52.738;6.282;2022-09-28T03:47:30;98817.16;;;8.17;100.00
1724;BME280;7460;52.738;6.282;2022-09-28T03:50:07;98825.78;;;8.27;100.00
1724;BME280;7460;52.738;6.282;2022-09-28T03:52:41;98814.81;;;8.29;100.00
1724;BME280;7460;52.738;6.282;2022-09-28T03:55:14;98811.00;;;8.23;100.00
1724;BME280;7460;52.738;6.282;2022-09-28T03:57:52;98818.72;;;8.26;100.00
1724;BME280;7460;52.738;6.282;2022-09-28T04:00:26;98812.63;;;8.03;100.00
1724;BME280;7460;52.738;6.282;2022-09-28T04:02:59;98823.00;;;7.91;100.00
1724;BME280;7460;52.738;6.282;2022-09-28T04:05:33;98824.69;;;7.92;100.00
1724;BME280;7460;52.738;6.282;2022-09-28T04:08:07;98826.44;;;8.00;100.00
1724;BME280;7460;52.738;6.282;2022-09-28T04:10:40;98833.22;;;8.11;100.00
1724;BME280;7460;52.738;6.282;2022-09-28T04:13:13;98823.28;;;8.11;100.00
1724;BME280;7460;52.738;6.282;2022-09-28T04:15:51;98828.47;;;8.13;100.00
1724;BME280;7460;52.738;6.282;2022-09-28T04:18:24;98829.78;;;8.17;100.00
1724;BME280;7460;52.738;6.282;2022-09-28T04:21:00;98824.03;;;8.20;100.00
1724;BME280;7460;52.738;6.282;2022-09-28T04:23:38;98835.09;;;8.10;100.00
1724;BME280;7460;52.738;6.282;2022-09-28T04:26:14;98836.03;;;8.03;100.00
1724;BME280;7460;52.738;6.282;2022-09-28T04:28:48;98848.59;;;8.10;100.00
1724;BME280;7460;52.738;6.282;2022-09-28T04:31:40;98844.00;;;7.96;100.00
1724;BME280;7460;52.738;6.282;2022-09-28T04:34:16;98850.78;;;8.21;100.00
1724;BME280;7460;52.738;6.282;2022-09-28T04:36:50;98860.38;;;8.24;100.00
1724;BME280;7460;52.738;6.282;2022-09-28T04:39:23;98846.16;;;8.30;100.00
1724;BME280;7460;52.738;6.282;2022-09-28T04:41:56;98844.94;;;8.33;100.00
1724;BME280;7460;52.738;6.282;2022-09-28T04:44:29;98844.66;;;8.42;100.00
1724;BME280;7460;52.738;6.282;2022-09-28T04:47:02;98846.69;;;8.55;100.00
1724;BME280;7460;52.738;6.282;2022-09-28T04:49:36;98850.59;;;8.67;100.00
1724;BME280;7460;52.738;6.282;2022-09-28T04:52:10;98849.22;;;8.78;100.00
1724;BME280;7460;52.738;6.282;2022-09-28T04:54:49;98855.38;;;8.86;100.00
1724;BME280;7460;52.738;6.282;2022-09-28T04:57:23;98855.44;;;8.93;100.00
1724;BME280;7460;52.738;6.282;2022-09-28T04:59:56;98857.09;;;8.94;100.00
1724;BME280;7460;52.738;6.282;2022-09-28T05:02:29;98855.44;;;8.93;100.00
1724;BME280;7460;52.738;6.282;2022-09-28T05:05:03;98853.81;;;8.99;100.00
1724;BME280;7460;52.738;6.282;2022-09-28T05:07:38;98857.81;;;9.03;100.00
1724;BME280;7460;52.738;6.282;2022-09-28T05:10:12;98847.75;;;9.11;100.00
1724;BME280;7460;52.738;6.282;2022-09-28T05:12:45;98849.84;;;9.16;100.00
1724;BME280;7460;52.738;6.282;2022-09-28T05:15:19;98846.00;;;9.25;100.00
1724;BME280;7460;52.738;6.282;2022-09-28T05:17:52;98851.84;;;9.28;100.00
1724;BME280;7460;52.738;6.282;2022-09-28T05:20:26;98848.50;;;9.26;100.00
1724;BME280;7460;52.738;6.282;2022-09-28T05:23:01;98850.84;;;9.15;100.00
1724;BME280;7460;52.738;6.282;2022-09-28T05:25:35;98847.22;;;9.22;100.00
1724;BME280;7460;52.738;6.282;2022-09-28T05:28:09;98853.06;;;9.26;100.00
1724;BME280;7460;52.738;6.282;2022-09-28T05:30:43;98866.44;;;9.13;100.00
1724;BME280;7460;52.738;6.282;2022-09-28T05:33:17;98857.56;;;9.19;100.00
1724;BME280;7460;52.738;6.282;2022-09-28T05:35:50;98860.22;;;9.12;100.00
1724;BME280;7460;52.738;6.282;2022-09-28T05:38:31;98856.78;;;9.04;100.00
1724;BME280;7460;52.738;6.282;2022-09-28T05:41:05;98847.72;;;8.90;100.00
1724;BME280;7460;52.738;6.282;2022-09-28T05:43:38;98857.31;;;8.78;100.00
1724;BME280;7460;52.738;6.282;2022-09-28T05:46:10;98854.72;;;8.84;100.00
1724;BME280;7460;52.738;6.282;2022-09-28T05:48:43;98860.38;;;8.89;100.00
1724;BME280;7460;52.738;6.282;2022-09-28T05:51:17;98862.44;;;8.87;100.00
1724;BME280;7460;52.738;6.282;2022-09-28T05:53:53;98857.72;;;8.96;100.00
1724;BME280;7460;52.738;6.282;2022-09-28T05:56:28;98857.72;;;8.96;100.00
1724;BME280;7460;52.738;6.282;2022-09-28T05:59:02;98860.19;;;8.91;100.00
1724;BME280;7460;52.738;6.282;2022-09-28T06:01:36;98857.34;;;8.99;100.00
1724;BME280;7460;52.738;6.282;2022-09-28T06:04:09;98866.75;;;9.03;100.00
1724;BME280;7460;52.738;6.282;2022-09-28T06:06:42;98860.25;;;8.98;100.00
1724;BME280;7460;52.738;6.282;2022-09-28T06:09:16;98868.78;;;9.01;100.00
1724;BME280;7460;52.738;6.282;2022-09-28T06:11:57;98878.47;;;9.10;100.00
1724;BME280;7460;52.738;6.282;2022-09-28T06:14:30;98876.25;;;8.99;100.00
1724;BME280;7460;52.738;6.282;2022-09-28T06:17:03;98877.34;;;9.05;100.00
1724;BME280;7460;52.738;6.282;2022-09-28T06:19:37;98878.00;;;9.07;100.00
1724;BME280;7460;52.738;6.282;2022-09-28T06:22:11;98872.97;;;9.04;100.00
1724;BME280;7460;52.738;6.282;2022-09-28T06:24:46;98878.66;;;9.09;100.00
1724;BME280;7460;52.738;6.282;2022-09-28T06:27:19;98870.56;;;9.09;100.00
1724;BME280;7460;52.738;6.282;2022-09-28T06:29:53;98878.69;;;9.15;100.00
1724;BME280;7460;52.738;6.282;2022-09-28T06:32:27;98882.31;;;9.22;100.00
1724;BME280;7460;52.738;6.282;2022-09-28T06:35:00;98876.16;;;9.28;100.00
1724;BME280;7460;52.738;6.282;2022-09-28T06:37:35;98882.66;;;9.34;100.00
1724;BME280;7460;52.738;6.282;2022-09-28T06:40:10;98881.81;;;9.34;100.00
1724;BME280;7460;52.738;6.282;2022-09-28T06:42:42;98890.97;;;9.39;100.00
1724;BME280;7460;52.738;6.282;2022-09-28T06:45:15;98888.81;;;9.28;100.00
1724;BME280;7460;52.738;6.282;2022-09-28T06:47:53;98890.41;;;9.22;100.00
1724;BME280;7460;52.738;6.282;2022-09-28T06:50:28;98900.91;;;9.32;100.00
1724;BME280;7460;52.738;6.282;2022-09-28T06:53:04;98901.03;;;9.24;100.00
1724;BME280;7460;52.738;6.282;2022-09-28T06:55:39;98904.38;;;9.26;100.00
1724;BME280;7460;52.738;6.282;2022-09-28T06:58:14;98918.78;;;9.12;100.00
1724;BME280;7460;52.738;6.282;2022-09-28T07:00:50;98912.34;;;9.13;100.00
1724;BME280;7460;52.738;6.282;2022-09-28T07:03:24;98914.06;;;9.20;100.00
1724;BME280;7460;52.738;6.282;2022-09-28T07:05:57;98916.31;;;9.38;100.00
1724;BME280;7460;52.738;6.282;2022-09-28T07:08:30;98910.34;;;9.43;100.00
1724;BME280;7460;52.738;6.282;2022-09-28T07:11:06;98910.88;;;9.53;100.00
1724;BME280;7460;52.738;6.282;2022-09-28T07:13:40;98918.69;;;9.69;100.00
1724;BME280;7460;52.738;6.282;2022-09-28T07:16:21;98917.13;;;9.81;100.00
1724;BME280;7460;52.738;6.282;2022-09-28T07:19:00;98922.22;;;9.91;100.00
1724;BME280;7460;52.738;6.282;2022-09-28T07:21:34;98916.41;;;9.94;100.00
1724;BME280;7460;52.738;6.282;2022-09-28T07:24:08;98925.94;;;9.90;100.00
1724;BME280;7460;52.738;6.282;2022-09-28T07:26:46;98930.03;;;10.07;100.00
1724;BME280;7460;52.738;6.282;2022-09-28T07:29:19;98927.47;;;10.27;100.00
1724;BME280;7460;52.738;6.282;2022-09-28T07:31:52;98929.53;;;10.25;100.00
1724;BME280;7460;52.738;6.282;2022-09-28T07:34:26;98929.22;;;10.35;100.00
1724;BME280;7460;52.738;6.282;2022-09-28T07:37:00;98928.00;;;10.16;100.00
1724;BME280;7460;52.738;6.282;2022-09-28T07:39:33;98921.56;;;10.17;100.00
1724;BME280;7460;52.738;6.282;2022-09-28T07:42:28;98932.41;;;10.51;100.00
1724;BME280;7460;52.738;6.282;2022-09-28T07:45:01;98930.25;;;10.81;100.00
1724;BME280;7460;52.738;6.282;2022-09-28T07:47:35;98935.78;;;11.01;100.00
1724;BME280;7460;52.738;6.282;2022-09-28T07:50:09;98940.22;;;11.28;100.00
1724;BME280;7460;52.738;6.282;2022-09-28T07:52:42;98941.13;;;11.49;100.00
1724;BME280;7460;52.738;6.282;2022-09-28T07:55:16;98939.03;;;11.64;100.00
1724;BME280;7460;52.738;6.282;2022-09-28T07:57:55;98947.41;;;11.69;100.00
1724;BME280;7460;52.738;6.282;2022-09-28T08:00:32;98944.22;;;11.39;100.00
1724;BME280;7460;52.738;6.282;2022-09-28T08:03:06;98939.25;;;11.49;100.00
1724;BME280;7460;52.738;6.282;2022-09-28T08:05:39;98947.97;;;11.45;100.00
1724;BME280;7460;52.738;6.282;2022-09-28T08:08:13;98950.44;;;11.26;100.00
1724;BME280;7460;52.738;6.282;2022-09-28T08:10:46;98947.94;;;11.25;100.00
1724;BME280;7460;52.738;6.282;2022-09-28T08:13:21;98959.41;;;11.27;100.00
1724;BME280;7460;52.738;6.282;2022-09-28T08:16:00;98957.97;;;11.44;100.00
1724;BME280;7460;52.738;6.282;2022-09-28T08:18:34;98965.53;;;11.55;100.00
1724;BME280;7460;52.738;6.282;2022-09-28T08:21:08;98953.88;;;11.61;100.00
1724;BME280;7460;52.738;6.282;2022-09-28T08:23:59;98963.63;;;11.43;100.00
1724;BME280;7460;52.738;6.282;2022-09-28T08:26:32;98961.31;;;11.46;100.00
1724;BME280;7460;52.738;6.282;2022-09-28T08:29:07;98963.44;;;11.57;100.00
1724;BME280;7460;52.738;6.282;2022-09-28T08:31:41;98970.19;;;11.94;100.00
1724;BME280;7460;52.738;6.282;2022-09-28T08:34:14;98966.84;;;12.19;100.00
1724;BME280;7460;52.738;6.282;2022-09-28T08:36:48;98972.47;;;12.30;100.00
1724;BME280;7460;52.738;6.282;2022-09-28T08:39:22;98973.69;;;12.61;100.00
1724;BME280;7460;52.738;6.282;2022-09-28T08:42:04;98977.19;;;12.88;100.00
1724;BME280;7460;52.738;6.282;2022-09-28T08:44:43;98985.75;;;12.78;100.00
1724;BME280;7460;52.738;6.282;2022-09-28T08:47:22;98982.25;;;12.58;100.00
1724;BME280;7460;52.738;6.282;2022-09-28T08:50:17;98976.66;;;12.20;100.00
1724;BME280;7460;52.738;6.282;2022-09-28T08:52:55;98988.06;;;12.81;100.00
1724;BME280;7460;52.738;6.282;2022-09-28T08:55:32;98994.22;;;13.21;100.00
1724;BME280;7460;52.738;6.282;2022-09-28T08:58:11;98984.50;;;13.76;100.00
1724;BME280;7460;52.738;6.282;2022-09-28T09:00:48;98983.47;;;14.02;100.00
1724;BME280;7460;52.738;6.282;2022-09-28T09:03:28;98970.22;;;14.99;100.00
1724;BME280;7460;52.738;6.282;2022-09-28T09:06:10;98983.72;;;15.60;100.00
1724;BME280;7460;52.738;6.282;2022-09-28T09:08:59;98984.84;;;15.71;100.00
1724;BME280;7460;52.738;6.282;2022-09-28T09:11:48;98984.00;;;15.70;100.00
1724;BME280;7460;52.738;6.282;2022-09-28T09:14:51;98981.91;;;15.84;100.00
1724;BME280;7460;52.738;6.282;2022-09-28T09:17:38;98979.84;;;16.09;100.00
1724;BME280;7460;52.738;6.282;2022-09-28T09:20:18;98969.84;;;15.62;100.00
1724;BME280;7460;52.738;6.282;2022-09-28T09:22:58;98975.56;;;15.24;100.00
1724;BME280;7460;52.738;6.282;2022-09-28T09:25:40;98985.41;;;15.25;100.00
1724;BME280;7460;52.738;6.282;2022-09-28T09:31:26;98975.09;;;15.45;100.00
1724;BME280;7460;52.738;6.282;2022-09-28T09:34:25;98978.50;;;15.40;100.00
1724;BME280;7460;52.738;6.282;2022-09-28T09:37:14;98975.75;;;16.00;100.00
1724;BME280;7460;52.738;6.282;2022-09-28T09:40:02;98983.53;;;16.27;100.00
1724;BME280;7460;52.738;6.282;2022-09-28T09:42:49;98976.88;;;16.23;100.00
1724;BME280;7460;52.738;6.282;2022-09-28T09:45:38;98972.00;;;16.13;100.00
1724;BME280;7460;52.738;6.282;2022-09-28T09:48:18;98977.47;;;16.13;100.00
1724;BME280;7460;52.738;6.282;2022-09-28T09:51:00;98974.97;;;16.00;100.00
1724;BME280;7460;52.738;6.282;2022-09-28T09:53:39;98971.81;;;15.85;100.00
1724;BME280;7460;52.738;6.282;2022-09-28T09:56:18;98975.66;;;15.65;100.00
1724;BME280;7460;52.738;6.282;2022-09-28T09:58:58;98974.47;;;15.61;100.00
1724;BME280;7460;52.738;6.282;2022-09-28T10:01:37;98980.75;;;15.62;100.00
1724;BME280;7460;52.738;6.282;2022-09-28T10:04:16;98968.94;;;15.68;100.00
1724;BME280;7460;52.738;6.282;2022-09-28T10:06:59;98977.78;;;15.63;100.00
1724;BME280;7460;52.738;6.282;2022-09-28T10:09:38;98976.50;;;15.66;100.00
1724;BME280;7460;52.738;6.282;2022-09-28T10:12:16;98975.28;;;15.62;100.00
1724;BME280;7460;52.738;6.282;2022-09-28T10:14:51;98970.84;;;15.49;100.00
1724;BME280;7460;52.738;6.282;2022-09-28T10:17:26;98969.09;;;15.55;100.00
1724;BME280;7460;52.738;6.282;2022-09-28T10:20:00;98970.88;;;15.31;100.00
1724;BME280;7460;52.738;6.282;2022-09-28T10:22:37;98971.19;;;15.23;100.00
1724;BME280;7460;52.738;6.282;2022-09-28T10:25:12;98968.00;;;15.26;100.00
1724;BME280;7460;52.738;6.282;2022-09-28T10:27:47;98964.44;;;15.25;100.00
1724;BME280;7460;52.738;6.282;2022-09-28T10:30:24;98964.75;;;15.35;100.00
1724;BME280;7460;52.738;6.282;2022-09-28T10:32:58;98968.81;;;15.44;100.00
1724;BME280;7460;52.738;6.282;2022-09-28T10:35:39;98966.44;;;15.48;100.00
1724;BME280;7460;52.738;6.282;2022-09-28T10:38:16;98962.03;;;15.35;100.00
1724;BME280;7460;52.738;6.282;2022-09-28T10:40:51;98973.75;;;15.18;100.00
1724;BME280;7460;52.738;6.282;2022-09-28T10:43:28;98972.78;;;15.30;100.00
1724;BME280;7460;52.738;6.282;2022-09-28T10:46:06;98966.75;;;15.40;100.00
1724;BME280;7460;52.738;6.282;2022-09-28T10:48:48;98963.81;;;15.41;100.00
1724;BME280;7460;52.738;6.282;2022-09-28T10:51:40;98953.34;;;15.38;100.00
1724;BME280;7460;52.738;6.282;2022-09-28T10:54:18;98955.59;;;15.30;100.00
1724;BME280;7460;52.738;6.282;2022-09-28T10:56:53;98957.69;;;15.28;100.00
1724;BME280;7460;52.738;6.282;2022-09-28T10:59:39;98957.16;;;15.37;100.00
1724;BME280;7460;52.738;6.282;2022-09-28T11:02:19;98948.16;;;15.37;100.00
1724;BME280;7460;52.738;6.282;2022-09-28T11:04:55;98949.94;;;15.43;100.00
1724;BME280;7460;52.738;6.282;2022-09-28T11:07:30;98951.97;;;15.66;100.00
1724;BME280;7460;52.738;6.282;2022-09-28T11:10:19;98943.09;;;15.70;100.00
1724;BME280;7460;52.738;6.282;2022-09-28T11:12:53;98946.06;;;15.80;100.00
1724;BME280;7460;52.738;6.282;2022-09-28T11:15:30;98946.06;;;15.80;100.00
1724;BME280;7460;52.738;6.282;2022-09-28T11:18:25;98943.44;;;15.74;100.00
1724;BME280;7460;52.738;6.282;2022-09-28T11:21:07;98941.41;;;15.69;100.00
1724;BME280;7460;52.738;6.282;2022-09-28T11:23:58;98945.59;;;15.84;100.00
1724;BME280;7460;52.738;6.282;2022-09-28T11:26:41;98943.50;;;15.97;100.00
1724;BME280;7460;52.738;6.282;2022-09-28T11:29:21;98948.50;;;16.12;100.00
1724;BME280;7460;52.738;6.282;2022-09-28T11:31:59;98942.59;;;16.38;100.00
1724;BME280;7460;52.738;6.282;2022-09-28T11:34:36;98953.03;;;16.53;100.00
1724;BME280;7460;52.738;6.282;2022-09-28T11:37:43;98948.66;;;16.52;100.00
1724;BME280;7460;52.738;6.282;2022-09-28T11:40:28;98946.28;;;16.56;100.00
1724;BME280;7460;52.738;6.282;2022-09-28T11:43:12;98943.19;;;16.75;100.00
1724;BME280;7460;52.738;6.282;2022-09-28T11:45:55;98938.16;;;16.96;100.00
1724;BME280;7460;52.738;6.282;2022-09-28T11:48:42;98941.56;;;17.14;100.00
1724;BME280;7460;52.738;6.282;2022-09-28T11:51:22;98947.44;;;17.35;100.00
1724;BME280;7460;52.738;6.282;2022-09-28T11:54:00;98940.59;;;17.21;100.00
1724;BME280;7460;52.738;6.282;2022-09-28T11:56:43;98932.13;;;16.94;100.00
1724;BME280;7460;52.738;6.282;2022-09-28T11:59:23;98940.00;;;17.18;100.00
1724;BME280;7460;52.738;6.282;2022-09-28T12:02:08;98929.03;;;16.90;100.00
1724;BME280;7460;52.738;6.282;2022-09-28T12:04:49;98924.28;;;16.86;99.78
1724;BME280;7460;52.738;6.282;2022-09-28T12:07:26;98922.22;;;17.44;100.00
1724;BME280;7460;52.738;6.282;2022-09-28T12:10:07;98926.44;;;17.52;100.00
1724;BME280;7460;52.738;6.282;2022-09-28T12:12:46;98926.41;;;17.35;97.94
1724;BME280;7460;52.738;6.282;2022-09-28T12:15:25;98931.75;;;16.90;100.00
1724;BME280;7460;52.738;6.282;2022-09-28T12:18:21;98923.47;;;16.73;100.00
1724;BME280;7460;52.738;6.282;2022-09-28T12:21:11;98926.19;;;16.50;100.00
1724;BME280;7460;52.738;6.282;2022-09-28T12:23:53;98922.53;;;16.33;100.00
1724;BME280;7460;52.738;6.282;2022-09-28T12:26:44;98916.59;;;16.36;100.00
1724;BME280;7460;52.738;6.282;2022-09-28T12:29:23;98921.81;;;16.61;100.00
1724;BME280;7460;52.738;6.282;2022-09-28T12:32:04;98912.66;;;16.67;100.00
1724;BME280;7460;52.738;6.282;2022-09-28T12:34:41;98919.19;;;16.77;100.00
1724;BME280;7460;52.738;6.282;2022-09-28T12:37:25;98908.25;;;16.77;100.00
1724;BME280;7460;52.738;6.282;2022-09-28T12:40:30;98908.22;;;16.89;100.00
1724;BME280;7460;52.738;6.282;2022-09-28T12:43:32;98899.25;;;16.65;97.19
1724;BME280;7460;52.738;6.282;2022-09-28T12:46:44;98902.94;;;16.71;100.00
1724;BME280;7460;52.738;6.282;2022-09-28T12:49:32;98899.41;;;16.99;98.39
1724;BME280;7460;52.738;6.282;2022-09-28T12:52:36;98906.69;;;16.93;96.76
1724;BME280;7460;52.738;6.282;2022-09-28T12:55:23;98908.88;;;16.79;93.78
1724;BME280;7460;52.738;6.282;2022-09-28T12:58:15;98896.88;;;16.57;95.43
1724;BME280;7460;52.738;6.282;2022-09-28T13:01:00;98897.69;;;16.58;95.19
1724;BME280;7460;52.738;6.282;2022-09-28T13:03:58;98888.06;;;16.55;91.87
1724;BME280;7460;52.738;6.282;2022-09-28T13:06:46;98887.44;;;16.88;91.72
1724;BME280;7460;52.738;6.282;2022-09-28T13:09:24;98879.81;;;17.02;89.08
1724;BME280;7460;52.738;6.282;2022-09-28T13:12:25;98873.16;;;17.26;92.22
1724;BME280;7460;52.738;6.282;2022-09-28T13:15:25;98874.88;;;17.44;92.93
1724;BME280;7460;52.738;6.282;2022-09-28T13:18:07;98876.22;;;17.30;92.32
1724;BME280;7460;52.738;6.282;2022-09-28T13:20:50;98877.22;;;17.24;93.66
1724;BME280;7460;52.738;6.282;2022-09-28T13:23:27;98879.44;;;17.27;93.02
1724;BME280;7460;52.738;6.282;2022-09-28T13:26:08;98881.03;;;17.23;93.09
1724;BME280;7460;52.738;6.282;2022-09-28T13:28:47;98877.78;;;17.26;93.07
1724;BME280;7460;52.738;6.282;2022-09-28T13:31:24;98882.19;;;17.27;93.55
1724;BME280;7460;52.738;6.282;2022-09-28T13:34:09;98876.94;;;17.25;92.07
1724;BME280;7460;52.738;6.282;2022-09-28T13:36:45;98876.72;;;17.27;91.07
1724;BME280;7460;52.738;6.282;2022-09-28T13:39:49;98879.22;;;17.00;87.06
1724;BME280;7460;52.738;6.282;2022-09-28T13:42:45;98870.06;;;16.94;84.55
1724;BME280;7460;52.738;6.282;2022-09-28T13:45:45;98877.97;;;16.79;86.45
1724;BME280;7460;52.738;6.282;2022-09-28T13:48:34;98881.78;;;16.78;88.13
1724;BME280;7460;52.738;6.282;2022-09-28T13:51:29;98877.94;;;16.91;89.06
1724;BME280;7460;52.738;6.282;2022-09-28T13:54:25;98874.34;;;17.02;88.28
1724;BME280;7460;52.738;6.282;2022-09-28T13:57:14;98875.47;;;17.17;91.86
1724;BME280;7460;52.738;6.282;2022-09-28T14:00:00;98875.66;;;16.99;87.93
1724;BME280;7460;52.738;6.282;2022-09-28T14:02:39;98877.50;;;17.10;90.36
1724;BME280;7460;52.738;6.282;2022-09-28T14:06:05;98863.81;;;17.10;85.92
1724;BME280;7460;52.738;6.282;2022-09-28T14:08:43;98869.28;;;17.10;85.42
1724;BME280;7460;52.738;6.282;2022-09-28T14:11:55;98859.00;;;17.01;85.28
1724;BME280;7460;52.738;6.282;2022-09-28T14:17:50;98867.00;;;16.91;86.41
1724;BME280;7460;52.738;6.282;2022-09-28T14:20:28;98869.47;;;17.04;88.97
1724;BME280;7460;52.738;6.282;2022-09-28T14:26:40;98874.06;;;16.75;88.22
1724;BME280;7460;52.738;6.282;2022-09-28T14:29:25;98872.50;;;16.67;89.47
1724;BME280;7460;52.738;6.282;2022-09-28T14:32:03;98869.78;;;16.56;91.88